Time;durP1;ratioP1;P1;durP2;ratioP2;P2;SDS_P1;SDS_P2;PMS_P1;PMS_P2;Temp;Humidity;BMP_temperature;BMP_pressure;BME280_temperature;BME280_humidity;BME280_pressure;Samples;Min_cycle;Max_cycle;Signal;HPM_P1;HPM_P2
2021/06/11 00:00:18;;;;;;;;;1.67;1.00;;;;;22.00;50.56;101795.66;6273941;22;45573;-92
2021/06/11 00:02:43;;;;;;;;;2.00;2.00;;;;;21.95;50.71;101782.72;6273266;22;47403;-92
2021/06/11 00:05:10;;;;;;;;;1.00;1.00;;;;;21.91;51.21;101789.16;6275777;22;45269;-92
2021/06/11 00:07:38;;;;;;;;;1.00;1.00;;;;;21.88;50.71;101786.72;6273027;22;45365;-92
2021/06/11 00:10:06;;;;;;;;;1.00;1.00;;;;;21.82;51.57;101787.13;6273644;22;45575;-92
2021/06/11 00:12:32;;;;;;;;;1.67;1.67;;;;;21.79;51.22;101792.66;6276575;22;46281;-92
2021/06/11 00:14:58;;;;;;;;;1.67;1.67;;;;;21.72;51.38;101797.50;6275096;22;45234;-91
2021/06/11 00:17:24;;;;;;;;;2.00;2.00;;;;;21.68;51.32;101795.97;6274474;22;45325;-92
2021/06/11 00:19:49;;;;;;;;;0.00;0.00;;;;;21.66;51.60;101797.88;6276510;22;45260;-91
2021/06/11 00:22:15;;;;;;;;;1.00;1.00;;;;;21.60;50.99;101791.19;6274876;22;48088;-91
2021/06/11 00:24:40;;;;;;;;;1.67;1.00;;;;;21.55;51.37;101783.56;6284603;22;45203;-91
2021/06/11 00:27:08;;;;;;;;;1.00;1.00;;;;;21.51;51.30;101789.16;6279221;22;45281;-91
2021/06/11 00:29:34;;;;;;;;;1.00;1.00;;;;;21.44;51.12;101784.25;6280443;22;45459;-91
2021/06/11 00:32:00;;;;;;;;;2.00;1.00;;;;;21.42;51.65;101796.75;6278762;22;47119;-91
2021/06/11 00:34:25;;;;;;;;;2.00;2.00;;;;;21.39;51.77;101796.09;6307528;22;45235;-92
2021/06/11 00:36:51;;;;;;;;;2.00;1.00;;;;;21.36;51.37;101794.50;6279715;22;45202;-91
2021/06/11 00:39:16;;;;;;;;;2.00;1.00;;;;;21.31;51.27;101793.97;6279490;22;45244;-91
2021/06/11 00:41:42;;;;;;;;;1.00;1.00;;;;;21.27;51.57;101789.81;6279246;22;47035;-91
2021/06/11 00:44:07;;;;;;;;;1.00;1.00;;;;;21.26;51.29;101791.63;6279157;22;45263;-91
2021/06/11 00:46:33;;;;;;;;;0.33;0.33;;;;;21.22;51.51;101788.31;6307783;22;45299;-91
2021/06/11 00:48:58;;;;;;;;;1.00;1.00;;;;;21.21;51.64;101791.06;6279617;22;45645;-90
2021/06/11 00:51:24;;;;;;;;;1.00;1.00;;;;;21.19;51.44;101792.94;6307485;22;45270;-91
2021/06/11 00:53:50;;;;;;;;;1.00;1.00;;;;;21.15;51.59;101792.28;6279844;22;45729;-91
2021/06/11 00:56:16;;;;;;;;;1.00;1.00;;;;;21.12;51.84;101797.81;6307734;22;45383;-91
2021/06/11 00:58:42;;;;;;;;;4.00;1.00;;;;;21.08;51.71;101791.00;6279751;22;45579;-91
2021/06/11 01:01:07;;;;;;;;;2.00;2.00;;;;;21.03;51.90;101791.31;6278844;22;46922;-91
2021/06/11 01:03:40;;;;;;;;;3.00;2.00;;;;;21.00;52.14;101786.19;6279404;22;45255;-91
2021/06/11 01:06:06;;;;;;;;;1.67;1.67;;;;;20.97;51.88;101789.06;6279241;22;45419;-91
2021/06/11 01:08:32;;;;;;;;;2.00;1.00;;;;;20.94;52.14;101792.75;6280041;22;45462;-91
2021/06/11 01:10:59;;;;;;;;;1.00;1.00;;;;;20.88;51.95;101779.06;6306934;22;45457;-91
2021/06/11 01:13:25;;;;;;;;;1.00;1.00;;;;;20.87;52.07;101783.47;6279621;22;45183;-92
2021/06/11 01:15:53;;;;;;;;;2.00;1.33;;;;;20.87;51.94;101785.28;6279543;22;45232;-92
2021/06/11 01:18:20;;;;;;;;;1.00;1.00;;;;;20.81;52.11;101778.53;6279501;22;45325;-91
2021/06/11 01:20:47;;;;;;;;;1.67;1.00;;;;;20.76;51.81;101780.63;6278958;22;46983;-92
2021/06/11 01:23:35;;;;;;;;;1.00;1.00;;;;;20.72;52.10;101785.28;6279018;22;45258;-92
2021/06/11 01:26:30;;;;;;;;;1.00;1.00;;;;;20.69;52.34;101788.13;6278668;22;45203;-91
2021/06/11 01:29:01;;;;;;;;;1.00;1.00;;;;;20.61;52.48;101774.50;6279135;22;45486;-91
2021/06/11 01:31:30;;;;;;;;;1.00;1.00;;;;;20.60;52.20;101786.88;6278775;22;47164;-91
2021/06/11 01:34:00;;;;;;;;;1.00;1.00;;;;;20.56;52.66;101786.22;6279233;22;45261;-91
2021/06/11 01:36:33;;;;;;;;;2.00;1.00;;;;;20.49;52.45;101782.25;6279559;22;45440;-92
2021/06/11 01:39:02;;;;;;;;;1.33;0.67;;;;;20.48;52.68;101790.28;6279548;22;45433;-91
2021/06/11 01:41:28;;;;;;;;;0.67;0.67;;;;;20.43;53.08;101783.47;6278566;22;47479;-91
2021/06/11 01:43:56;;;;;;;;;1.00;1.00;;;;;20.39;52.97;101787.28;6303113;22;45994;-90
2021/06/11 01:46:28;;;;;;;;;0.00;0.00;;;;;20.37;52.84;101786.50;6279406;22;45206;-91
2021/06/11 01:48:55;;;;;;;;;2.00;1.00;;;;;20.35;53.11;101779.59;6279475;22;45425;-91
2021/06/11 01:51:21;;;;;;;;;0.33;0.33;;;;;20.31;52.99;101780.75;6279353;22;47258;-92
2021/06/11 01:53:48;;;;;;;;;1.00;1.00;;;;;20.29;53.32;101783.50;6306791;22;45188;-91
2021/06/11 01:56:17;;;;;;;;;1.00;1.00;;;;;20.27;53.56;101783.56;6279559;22;45247;-91
2021/06/11 01:58:43;;;;;;;;;1.00;1.00;;;;;20.24;53.22;101775.84;6279322;22;45317;-91
2021/06/11 02:01:11;;;;;;;;;1.00;0.00;;;;;20.21;53.36;101773.38;6306720;22;45431;-91
2021/06/11 02:03:39;;;;;;;;;1.00;1.00;;;;;20.16;53.70;101776.31;6278840;22;45238;-92
2021/06/11 02:06:07;;;;;;;;;0.33;0.33;;;;;20.16;53.73;101778.97;6279239;22;45357;-91
2021/06/11 02:08:34;;;;;;;;;0.33;0.33;;;;;20.14;53.55;101769.41;6279438;22;45553;-91
2021/06/11 02:11:00;;;;;;;;;1.00;1.00;;;;;20.08;53.48;101775.91;6278788;22;47054;-92
2021/06/11 02:13:27;;;;;;;;;1.00;1.00;;;;;20.09;53.27;101774.13;6279137;22;45307;-91
2021/06/11 02:15:54;;;;;;;;;0.00;0.00;;;;;20.07;53.69;101770.72;6279486;22;45243;-92
2021/06/11 02:18:21;;;;;;;;;1.00;1.00;;;;;20.04;53.57;101769.09;6279690;22;45287;-91
2021/06/11 02:20:52;;;;;;;;;2.00;2.00;;;;;19.98;53.80;101762.41;6279053;22;48086;-92
2021/06/11 02:23:19;;;;;;;;;1.67;1.00;;;;;19.97;54.12;101763.34;6279141;22;45317;-91
2021/06/11 02:25:45;;;;;;;;;1.33;1.33;;;;;19.93;54.03;101761.81;6278665;22;45412;-92
2021/06/11 02:28:15;;;;;;;;;1.00;1.00;;;;;19.88;53.96;101761.22;6279404;22;45381;-92
2021/06/11 02:30:41;;;;;;;;;1.00;1.00;;;;;19.87;54.15;101757.72;6279281;22;47709;-91
2021/06/11 02:33:07;;;;;;;;;1.00;1.00;;;;;19.84;54.40;101757.91;6306617;22;45432;-91
2021/06/11 02:35:32;;;;;;;;;0.00;0.00;;;;;19.81;54.11;101755.44;6306751;22;45238;-92
2021/06/11 02:37:58;;;;;;;;;1.00;1.00;;;;;19.77;54.28;101748.66;6279805;22;45432;-92
2021/06/11 02:40:24;;;;;;;;;1.00;1.00;;;;;19.76;54.33;101765.44;6279041;22;46628;-91
2021/06/11 02:43:02;;;;;;;;;1.50;1.50;;;;;19.73;54.73;101758.53;6279280;22;45325;-91
2021/06/11 02:45:30;;;;;;;;;2.00;1.00;;;;;19.67;54.49;101750.97;6279271;22;45346;-91
2021/06/11 02:48:14;;;;;;;;;2.00;2.00;;;;;19.68;54.72;101750.06;6279465;22;45187;-92
2021/06/11 02:50:57;;;;;;;;;1.00;0.50;;;;;19.61;54.93;101746.06;6278639;22;47686;-92
2021/06/11 02:53:26;;;;;;;;;0.75;0.75;;;;;19.56;54.56;101746.34;6278604;22;45443;-91
2021/06/11 02:55:58;;;;;;;;;2.00;2.00;;;;;19.54;54.78;101750.00;6278843;22;45403;-91
2021/06/11 02:58:30;;;;;;;;;0.75;0.75;;;;;19.53;55.17;101757.06;6279382;22;45500;-91
2021/06/11 03:00:57;;;;;;;;;1.00;1.00;;;;;19.51;55.26;101751.03;6278586;22;47446;-91
2021/06/11 03:03:30;;;;;;;;;1.00;0.00;;;;;19.52;55.27;101760.66;6307366;22;45293;-91
2021/06/11 03:06:02;;;;;;;;;2.00;0.25;;;;;19.49;55.41;101747.66;6278545;22;45451;-91
2021/06/11 03:08:31;;;;;;;;;3.50;1.00;;;;;19.43;55.35;101743.56;6279231;22;45200;-91
2021/06/11 03:11:04;;;;;;;;;1.00;1.00;;;;;19.41;55.61;101748.09;6278265;22;47170;-92
2021/06/11 03:13:30;;;;;;;;;1.67;1.67;;;;;19.35;55.37;101741.34;6278772;22;45399;-92
2021/06/11 03:15:57;;;;;;;;;1.00;1.00;;;;;19.33;55.35;101745.00;6279114;22;45481;-92
2021/06/11 03:18:29;;;;;;;;;2.00;1.00;;;;;19.32;55.75;101744.19;6279056;22;45449;-91
2021/06/11 03:20:58;;;;;;;;;1.00;1.00;;;;;19.29;55.68;101735.56;6278196;22;47199;-92
2021/06/11 03:23:29;;;;;;;;;1.33;1.33;;;;;19.26;55.96;101741.03;6278947;22;45443;-92
2021/06/11 03:26:03;;;;;;;;;3.00;1.00;;;;;19.24;55.69;101743.75;6278444;22;44741;-91
2021/06/11 03:28:45;;;;;;;;;1.00;1.00;;;;;19.24;56.13;101741.13;6306511;22;45371;-91
2021/06/11 03:31:23;;;;;;;;;2.00;1.00;;;;;19.22;55.85;101740.38;6278706;22;47312;-91
2021/06/11 03:33:53;;;;;;;;;1.00;1.00;;;;;19.17;56.28;101737.13;6279033;22;45545;-92
2021/06/11 03:36:24;;;;;;;;;1.00;1.00;;;;;19.20;56.02;101752.78;6278981;22;45184;-91
2021/06/11 03:38:54;;;;;;;;;2.00;2.00;;;;;19.15;56.12;101745.13;6278845;22;45383;-92
2021/06/11 03:41:22;;;;;;;;;1.00;1.00;;;;;19.16;56.40;101743.34;6279153;22;48296;-92
2021/06/11 03:43:52;;;;;;;;;1.00;1.00;;;;;19.12;56.04;101742.66;6278030;22;45264;-91
2021/06/11 03:46:19;;;;;;;;;1.00;1.00;;;;;19.11;55.98;101750.69;6279074;22;45295;-92
2021/06/11 03:48:50;;;;;;;;;1.00;1.00;;;;;19.11;56.18;101750.69;6279262;22;45191;-92
2021/06/11 03:51:17;;;;;;;;;2.00;1.00;;;;;19.04;56.15;101750.16;6278485;22;47030;-91
2021/06/11 03:53:47;;;;;;;;;1.00;1.00;;;;;19.03;56.63;101758.97;6278410;22;45289;-93
2021/06/11 03:56:15;;;;;;;;;4.00;1.00;;;;;18.98;56.48;101746.03;6278926;22;45277;-91
2021/06/11 03:58:42;;;;;;;;;1.33;1.00;;;;;18.96;56.83;101740.88;6278928;22;45504;-92
2021/06/11 04:01:16;;;;;;;;;2.00;1.00;;;;;18.96;57.04;101755.81;6278149;22;47510;-92
2021/06/11 04:03:43;;;;;;;;;0.33;0.33;;;;;18.94;56.71;101755.06;6278967;22;45461;-92
2021/06/11 04:06:12;;;;;;;;;1.67;1.00;;;;;18.91;56.92;101756.09;6306943;22;45294;-91
2021/06/11 04:08:38;;;;;;;;;3.00;1.33;;;;;18.89;56.71;101754.47;6278598;22;45510;-91
2021/06/11 04:11:06;;;;;;;;;1.67;1.67;;;;;18.86;56.90;101754.63;6278148;22;47213;-91
2021/06/11 04:13:53;;;;;;;;;1.00;1.00;;;;;18.87;57.27;101761.59;6306535;22;45319;-91
2021/06/11 04:16:23;;;;;;;;;2.00;0.33;;;;;18.81;57.12;101761.03;6277974;22;45414;-91
2021/06/11 04:18:51;;;;;;;;;1.00;1.00;;;;;18.78;56.92;101755.06;6306816;22;45411;-91
2021/06/11 04:21:25;;;;;;;;;3.33;1.00;;;;;18.78;57.17;101755.91;6277898;22;46772;-90
2021/06/11 04:23:56;;;;;;;;;2.00;1.00;;;;;18.78;57.26;101753.28;6278533;22;45654;-91
2021/06/11 04:26:25;;;;;;;;;3.00;1.00;;;;;18.76;57.92;101751.66;6278144;22;45282;-91
2021/06/11 04:28:54;;;;;;;;;1.00;1.00;;;;;18.76;57.40;101749.88;6278383;22;45442;-89
2021/06/11 04:31:22;;;;;;;;;0.33;0.33;;;;;18.77;58.11;101762.13;6278366;22;47046;-91
2021/06/11 04:33:47;;;;;;;;;1.00;1.00;;;;;18.78;57.95;101757.69;6278251;22;45873;-91
2021/06/11 04:36:13;;;;;;;;;2.00;0.00;;;;;18.81;57.89;101749.63;6278784;22;45288;-91
2021/06/11 04:39:07;;;;;;;;;1.00;1.00;;;;;18.81;57.95;101758.41;6278869;22;45328;-91
2021/06/11 04:41:33;;;;;;;;;2.00;2.00;;;;;18.88;57.68;101758.06;6278052;22;46762;-90
2021/06/11 04:44:00;;;;;;;;;3.67;1.00;;;;;18.90;58.00;101757.03;6305676;22;45451;-90
2021/06/11 04:46:27;;;;;;;;;2.00;2.00;;;;;18.89;57.90;101754.47;6278773;22;45404;-91
2021/06/11 04:48:53;;;;;;;;;1.67;1.67;;;;;18.93;57.85;101759.47;6278943;22;45651;-91
2021/06/11 04:51:19;;;;;;;;;0.67;0.67;;;;;18.92;57.83;101762.19;6278041;22;48310;-91
2021/06/11 04:53:45;;;;;;;;;1.33;1.33;;;;;18.99;58.19;101768.88;6277686;22;45217;-91
2021/06/11 04:56:12;;;;;;;;;1.67;1.67;;;;;18.98;57.96;101761.84;6277968;22;45238;-91
2021/06/11 04:58:39;;;;;;;;;3.00;2.00;;;;;19.05;57.72;101758.00;6279397;22;45650;-90
2021/06/11 05:01:06;;;;;;;;;2.00;2.00;;;;;19.09;57.74;101759.53;6279488;22;46694;-91
2021/06/11 05:03:35;;;;;;;;;3.00;2.00;;;;;19.14;58.07;101763.69;6279416;22;45392;-91
2021/06/11 05:06:03;;;;;;;;;1.00;1.00;;;;;19.19;57.53;101765.13;6279773;22;45189;-91
2021/06/11 05:08:31;;;;;;;;;1.25;1.25;;;;;19.21;57.09;101757.97;6279755;22;45345;-90
2021/06/11 05:10:57;;;;;;;;;3.00;2.00;;;;;19.29;57.25;101764.59;6278090;22;47215;-91
2021/06/11 05:13:23;;;;;;;;;3.00;3.00;;;;;19.33;57.35;101774.03;6279371;22;45272;-90
2021/06/11 05:15:49;;;;;;;;;1.25;1.00;;;;;19.38;57.40;101769.34;6279662;22;45307;-91
2021/06/11 05:18:15;;;;;;;;;2.00;1.50;;;;;19.40;57.50;101772.78;6279325;22;45267;-90
2021/06/11 05:20:41;;;;;;;;;2.00;2.00;;;;;19.48;57.18;101785.50;6279238;22;48035;-91
2021/06/11 05:23:07;;;;;;;;;2.00;1.00;;;;;19.50;57.42;101779.22;6278999;22;45253;-91
2021/06/11 05:25:34;;;;;;;;;1.67;1.33;;;;;19.57;57.20;101781.50;6307091;22;45504;-91
2021/06/11 05:28:00;;;;;;;;;2.33;2.00;;;;;19.59;56.92;101783.09;6307683;22;45381;-90
2021/06/11 05:30:27;;;;;;;;;3.00;2.33;;;;;19.65;57.03;101788.97;6278949;22;47355;-91
2021/06/11 05:32:54;;;;;;;;;2.25;2.00;;;;;19.68;56.50;101794.09;6279395;22;45411;-91
2021/06/11 05:35:20;;;;;;;;;4.00;2.00;;;;;19.69;57.02;101787.84;6279467;22;45512;-91
2021/06/11 05:37:46;;;;;;;;;2.67;1.67;;;;;19.73;56.77;101789.38;6307885;22;45483;-91
2021/06/11 05:40:13;;;;;;;;;2.67;2.00;;;;;19.79;56.92;101794.31;6278444;22;47217;-91
2021/06/11 05:42:38;;;;;;;;;1.00;1.00;;;;;19.84;56.85;101802.81;6279460;22;45418;-91
2021/06/11 05:45:05;;;;;;;;;3.00;2.00;;;;;19.85;56.87;101785.16;6279499;22;45293;-91
2021/06/11 05:47:30;;;;;;;;;2.00;2.00;;;;;19.89;57.04;101797.25;6279844;22;45384;-90
2021/06/11 05:49:56;;;;;;;;;3.00;2.67;;;;;19.94;56.81;101795.19;6278928;22;47258;-91
2021/06/11 05:52:21;;;;;;;;;4.00;2.00;;;;;20.01;56.41;101796.56;6278760;22;45276;-91
2021/06/11 05:54:47;;;;;;;;;3.00;3.00;;;;;20.09;56.43;101808.47;6279863;22;45233;-91
2021/06/11 05:57:12;;;;;;;;;4.67;3.33;;;;;20.14;56.55;101796.69;6279348;22;45425;-92
2021/06/11 05:59:38;;;;;;;;;5.00;3.00;;;;;20.16;56.45;101804.53;6307615;22;46116;-91
2021/06/11 06:02:04;;;;;;;;;2.00;2.00;;;;;20.23;56.40;101805.84;6279003;22;45409;-92
2021/06/11 06:04:29;;;;;;;;;1.33;1.33;;;;;20.25;56.64;101803.97;6279476;22;45368;-92
2021/06/11 06:06:58;;;;;;;;;3.00;3.00;;;;;20.33;56.23;101808.81;6279770;22;45345;-91
2021/06/11 06:09:23;;;;;;;;;1.67;1.67;;;;;20.35;56.08;101806.91;6278373;22;48191;-91
2021/06/11 06:11:49;;;;;;;;;3.00;2.00;;;;;20.40;55.94;101803.97;6279003;22;45416;-92
2021/06/11 06:14:14;;;;;;;;;2.67;2.67;;;;;20.45;55.94;101809.00;6279392;22;45432;-92
2021/06/11 06:16:39;;;;;;;;;2.00;2.00;;;;;20.52;55.71;101813.81;6279190;22;45406;-92
2021/06/11 06:19:05;;;;;;;;;2.00;2.00;;;;;20.56;55.76;101817.13;6305419;22;46788;-90
2021/06/11 06:21:32;;;;;;;;;2.67;2.00;;;;;20.64;55.34;101825.41;6306382;22;45404;-92
2021/06/11 06:23:59;;;;;;;;;2.00;2.00;;;;;20.66;55.47;101812.09;6279811;22;45400;-92
2021/06/11 06:26:24;;;;;;;;;4.00;2.00;;;;;20.74;55.33;101816.91;6278985;22;45266;-90
2021/06/11 06:28:50;;;;;;;;;2.33;2.00;;;;;20.79;55.12;101817.47;6278876;22;47466;-90
2021/06/11 06:31:15;;;;;;;;;2.00;2.00;;;;;20.84;54.72;101818.03;6278783;22;45637;-91
2021/06/11 06:33:41;;;;;;;;;1.33;1.33;;;;;20.92;55.07;101821.06;6279134;22;45357;-91
2021/06/11 06:36:08;;;;;;;;;2.00;2.00;;;;;21.00;55.04;101825.88;6278839;22;45377;-91
2021/06/11 06:38:34;;;;;;;;;2.00;2.00;;;;;21.08;54.94;101828.06;6279115;22;47178;-91
2021/06/11 06:41:01;;;;;;;;;2.00;2.00;;;;;21.14;54.58;101822.34;6306689;22;45319;-91
2021/06/11 06:43:28;;;;;;;;;3.00;2.00;;;;;21.23;54.16;101823.56;6279388;22;45465;-91
2021/06/11 06:45:53;;;;;;;;;2.00;2.00;;;;;21.31;54.03;101831.00;6278486;22;45491;-90
2021/06/11 06:48:19;;;;;;;;;4.00;2.00;;;;;21.33;54.25;101829.97;6278401;22;47944;-91
2021/06/11 06:50:45;;;;;;;;;1.33;1.33;;;;;21.38;54.23;101821.72;6306431;22;45187;-91
2021/06/11 06:53:10;;;;;;;;;3.00;1.67;;;;;21.47;54.23;101830.84;6306471;22;45205;-92
2021/06/11 06:55:37;;;;;;;;;2.33;2.00;;;;;21.52;54.02;101830.59;6279319;22;45230;-90
2021/06/11 06:58:03;;;;;;;;;2.67;2.00;;;;;21.55;54.02;101825.94;6306717;22;45258;-90
2021/06/11 07:00:28;;;;;;;;;1.33;1.33;;;;;21.61;53.30;101829.94;6278020;22;45889;-90
2021/06/11 07:02:54;;;;;;;;;4.33;2.00;;;;;21.63;53.30;101825.44;6278462;22;45390;-91
2021/06/11 07:05:19;;;;;;;;;2.67;1.67;;;;;21.67;53.43;101823.41;6277400;22;45299;-91
2021/06/11 07:07:45;;;;;;;;;3.00;2.00;;;;;21.72;53.09;101826.66;6275614;22;46970;-91
2021/06/11 07:10:11;;;;;;;;;1.67;1.67;;;;;21.79;52.93;101833.22;6276239;22;45549;-91
2021/06/11 07:12:39;;;;;;;;;2.00;2.00;;;;;21.83;52.93;101832.06;6277605;22;45424;-92
2021/06/11 07:15:09;;;;;;;;;3.33;3.00;;;;;21.91;52.90;101836.00;6275969;22;45578;-91
2021/06/11 07:17:34;;;;;;;;;1.67;1.67;;;;;21.94;52.93;101826.03;6276251;22;47083;-91
2021/06/11 07:20:00;;;;;;;;;1.00;1.00;;;;;21.96;53.06;101826.81;6276212;22;45391;-91
2021/06/11 07:22:25;;;;;;;;;3.00;3.00;;;;;22.03;52.58;101827.22;6277158;22;45508;-91
2021/06/11 07:24:51;;;;;;;;;1.00;1.00;;;;;22.13;52.54;101827.47;6279077;22;45321;-91
2021/06/11 07:27:16;;;;;;;;;4.00;2.00;;;;;22.19;52.84;101828.84;6278202;22;48146;-91
2021/06/11 07:29:44;;;;;;;;;1.00;1.00;;;;;22.25;52.06;101829.28;6278900;22;45734;-92
2021/06/11 07:32:11;;;;;;;;;2.00;0.33;;;;;22.33;51.82;101835.84;6278935;22;45416;-92
2021/06/11 07:34:40;;;;;;;;;2.00;1.00;;;;;22.36;51.36;101825.03;6278115;22;45490;-92
2021/06/11 07:37:06;;;;;;;;;0.00;0.00;;;;;22.46;51.36;101833.19;6274936;22;48311;-91
2021/06/11 07:39:32;;;;;;;;;1.67;0.33;;;;;22.51;51.24;101828.41;6276037;22;45744;-92
2021/06/11 07:41:57;;;;;;;;;2.00;0.67;;;;;22.57;51.36;101824.53;6278313;22;45413;-91
2021/06/11 07:44:23;;;;;;;;;1.67;1.00;;;;;22.65;51.00;101831.00;6306424;22;45160;-91
2021/06/11 07:46:49;;;;;;;;;1.33;1.00;;;;;22.68;51.50;101827.28;6278509;22;48112;-92
2021/06/11 07:49:14;;;;;;;;;2.00;1.67;;;;;22.74;51.17;101828.63;6279044;22;45319;-90
2021/06/11 07:51:41;;;;;;;;;1.00;1.00;;;;;22.75;50.86;101830.31;6278586;22;45202;-92
2021/06/11 07:54:07;;;;;;;;;2.00;2.00;;;;;22.83;50.07;101825.34;6278142;22;45214;-91
2021/06/11 07:56:36;;;;;;;;;1.67;1.00;;;;;22.86;50.26;101833.06;6275849;22;48079;-92
2021/06/11 07:59:02;;;;;;;;;2.33;2.00;;;;;22.88;50.79;101833.81;6277998;22;45392;-91
2021/06/11 08:01:27;;;;;;;;;2.00;2.00;;;;;22.92;50.60;101840.56;6305315;22;45435;-91
2021/06/11 08:03:52;;;;;;;;;1.67;1.67;;;;;22.95;50.61;101840.38;6280833;22;45223;-92
2021/06/11 08:06:19;;;;;;;;;3.00;2.00;;;;;23.01;50.45;101835.59;6277718;22;47006;-92
2021/06/11 08:08:44;;;;;;;;;2.00;1.00;;;;;23.09;50.66;101838.53;6297066;22;45194;-92
2021/06/11 08:11:10;;;;;;;;;2.00;2.00;;;;;23.15;49.92;101840.72;6305996;22;45302;-91
2021/06/11 08:13:37;;;;;;;;;1.33;0.67;;;;;23.19;49.87;101836.91;6304534;22;45275;-92
2021/06/11 08:16:03;;;;;;;;;0.33;0.33;;;;;23.25;49.90;101842.72;6278414;22;47278;-91
2021/06/11 08:18:28;;;;;;;;;1.67;1.67;;;;;23.30;49.74;101848.56;6277744;22;45405;-91
2021/06/11 08:20:54;;;;;;;;;1.33;1.33;;;;;23.33;49.82;101843.06;6305836;22;45435;-92
2021/06/11 08:23:19;;;;;;;;;0.33;0.33;;;;;23.40;49.58;101846.09;6278500;22;45428;-91
2021/06/11 08:25:44;;;;;;;;;1.00;1.00;;;;;23.42;49.18;101846.84;6277716;22;47062;-92
2021/06/11 08:28:11;;;;;;;;;1.00;1.00;;;;;23.50;49.63;101847.13;6278211;22;45571;-92
2021/06/11 08:30:36;;;;;;;;;1.00;1.00;;;;;23.55;48.75;101844.13;6278824;22;45303;-93
2021/06/11 08:33:02;;;;;;;;;1.00;1.00;;;;;23.64;49.53;101850.56;6279947;22;45471;-93
2021/06/11 08:35:36;;;;;;;;;1.67;1.00;;;;;23.73;49.11;101858.69;6279804;22;47268;-93
2021/06/11 08:38:02;;;;;;;;;3.00;1.67;;;;;23.80;49.17;101848.47;6279772;22;45978;-93
2021/06/11 08:40:28;;;;;;;;;1.33;1.00;;;;;23.87;49.29;101844.38;6279455;22;45422;-92
2021/06/11 08:42:54;;;;;;;;;1.67;0.33;;;;;23.97;48.84;101852.50;6280077;22;45261;-92
2021/06/11 08:45:21;;;;;;;;;1.33;1.00;;;;;24.01;48.13;101853.97;6279832;22;48027;-92
2021/06/11 08:47:50;;;;;;;;;1.00;1.00;;;;;24.07;48.26;101852.63;6278917;22;45753;-92
2021/06/11 08:50:23;;;;;;;;;2.33;2.33;;;;;24.11;48.18;101850.63;6280016;22;45259;-92
2021/06/11 08:52:49;;;;;;;;;0.33;0.33;;;;;24.19;48.15;101847.38;6280290;22;45484;-91
2021/06/11 08:55:15;;;;;;;;;1.00;1.00;;;;;24.25;48.09;101846.91;6279668;22;47127;-91
2021/06/11 08:57:41;;;;;;;;;2.67;1.00;;;;;24.31;48.01;101846.44;6279262;22;45437;-92
2021/06/11 09:00:08;;;;;;;;;2.00;2.00;;;;;24.38;47.35;101846.78;6279570;22;45344;-93
2021/06/11 09:02:33;;;;;;;;;1.00;1.00;;;;;24.44;47.33;101845.47;6278967;22;45413;-92
2021/06/11 09:04:59;;;;;;;;;0.67;0.67;;;;;24.47;47.69;101850.53;6279460;22;46865;-91
2021/06/11 09:07:31;;;;;;;;;3.00;1.67;;;;;24.52;47.16;101853.69;6279919;22;45572;-92
2021/06/11 09:10:04;;;;;;;;;0.33;0.33;;;;;24.53;47.27;101850.09;6279245;22;45436;-92
2021/06/11 09:12:41;;;;;;;;;1.67;1.33;;;;;24.64;46.80;101851.88;6279893;22;45365;-93
2021/06/11 09:15:12;;;;;;;;;1.33;1.00;;;;;24.75;46.73;101851.03;6279826;22;46797;-91
2021/06/11 09:17:49;;;;;;;;;1.00;1.00;;;;;24.90;46.63;101843.69;6279236;22;45553;-92
2021/06/11 09:20:41;;;;;;;;;2.33;1.00;;;;;25.03;46.31;101849.72;6275788;22;45433;-93
2021/06/11 09:23:10;;;;;;;;;1.00;1.00;;;;;25.16;45.71;101844.25;6278261;22;45254;-92
2021/06/11 09:25:41;;;;;;;;;2.00;2.00;;;;;25.31;45.63;101842.13;6278557;22;47882;-91
2021/06/11 09:28:14;;;;;;;;;2.33;2.33;;;;;25.47;45.62;101836.38;6279788;22;45461;-92
2021/06/11 09:30:40;;;;;;;;;2.00;2.00;;;;;25.67;45.10;101841.91;6276909;22;45278;-94
2021/06/11 09:33:15;;;;;;;;;1.00;1.00;;;;;25.79;44.96;101831.19;6277784;22;45420;-92
2021/06/11 09:35:55;;;;;;;;;2.67;2.00;;;;;25.88;44.40;101827.78;6277888;22;47336;-92
2021/06/11 09:38:21;;;;;;;;;4.00;2.00;;;;;25.96;44.83;101829.78;6305169;22;45253;-92
2021/06/11 09:40:52;;;;;;;;;3.00;2.33;;;;;26.05;44.25;101820.16;6277036;22;45182;-93
2021/06/11 09:43:18;;;;;;;;;3.00;3.00;;;;;26.17;44.25;101813.75;6276818;22;45383;-92
2021/06/11 09:45:58;;;;;;;;;1.00;1.00;;;;;26.37;43.94;101824.53;6279881;22;46354;-93
2021/06/11 09:48:26;;;;;;;;;5.00;2.00;;;;;26.43;44.00;101818.69;6279690;22;45210;-92
2021/06/11 09:50:52;;;;;;;;;3.00;3.00;;;;;26.60;43.66;101817.19;6279451;22;45392;-93
2021/06/11 09:53:27;;;;;;;;;1.00;1.00;;;;;26.64;42.99;101810.63;6279841;22;45416;-93
2021/06/11 09:55:54;;;;;;;;;2.33;2.00;;;;;26.77;43.96;101815.72;6278147;22;48204;-92
2021/06/11 09:58:37;;;;;;;;;2.00;2.00;;;;;26.95;43.30;101815.09;6277925;22;45516;-94
2021/06/11 10:01:10;;;;;;;;;2.00;1.67;;;;;27.15;44.00;101813.28;6276980;22;45413;-94
2021/06/11 10:03:46;;;;;;;;;3.00;3.00;;;;;27.34;43.13;101809.78;6278505;22;45231;-93
2021/06/11 10:06:18;;;;;;;;;6.00;3.67;;;;;27.58;42.87;101819.22;6277233;22;47964;-92
2021/06/11 10:08:50;;;;;;;;;3.75;3.75;;;;;27.72;42.18;101804.59;6277113;22;45288;-91
2021/06/11 10:11:20;;;;;;;;;4.00;2.67;;;;;27.88;41.58;101811.19;6277182;22;45516;-93
2021/06/11 10:13:49;;;;;;;;;5.00;4.67;;;;;27.99;40.76;101816.34;6277726;22;45397;-93
2021/06/11 10:16:20;;;;;;;;;4.00;2.00;;;;;28.09;41.01;101815.50;6278281;22;47430;-92
2021/06/11 10:18:46;;;;;;;;;3.00;1.67;;;;;28.21;40.51;101811.66;6277250;22;45177;-93
2021/06/11 10:21:12;;;;;;;;;5.00;3.33;;;;;28.35;40.09;101815.72;6276969;22;45254;-93
2021/06/11 10:23:48;;;;;;;;;3.67;3.67;;;;;28.46;40.08;101811.16;6277377;22;45318;-95
2021/06/11 10:26:14;;;;;;;;;2.33;2.33;;;;;28.59;39.38;101806.31;6275677;22;48280;-92
2021/06/11 10:28:48;;;;;;;;;2.00;2.00;;;;;28.73;39.50;101809.47;6276730;22;45445;-93
2021/06/11 10:31:15;;;;;;;;;3.33;2.00;;;;;28.88;39.22;101816.03;6277359;22;45563;-92
2021/06/11 10:33:50;;;;;;;;;3.00;3.00;;;;;28.89;38.63;101811.53;6277737;22;45429;-94
2021/06/11 10:36:32;;;;;;;;;2.75;2.75;;;;;28.87;38.79;101814.34;6276259;22;47173;-94
2021/06/11 10:39:14;;;;;;;;;4.00;4.00;;;;;28.88;38.04;101807.16;6276531;22;45333;-93
2021/06/11 10:41:58;;;;;;;;;2.67;2.00;;;;;28.98;38.70;101802.59;6276339;22;45514;-93
2021/06/11 10:45:04;;;;;;;;;2.33;2.00;;;;;29.11;38.03;101801.38;6278965;22;45375;-93
2021/06/11 10:47:33;;;;;;;;;3.33;3.00;;;;;29.18;38.15;101797.91;6301688;22;46936;-92
2021/06/11 10:49:58;;;;;;;;;3.67;3.67;;;;;29.36;38.06;101806.94;6276227;22;45690;-93
2021/06/11 10:52:46;;;;;;;;;3.67;3.67;;;;;29.58;38.12;101800.28;6276197;22;45331;-92
2021/06/11 10:55:14;;;;;;;;;2.67;2.67;;;;;29.82;37.23;101805.00;6277150;22;45395;-93
2021/06/11 10:58:00;;;;;;;;;5.00;3.00;;;;;30.03;37.18;101803.75;6276792;22;47767;-92
2021/06/11 11:00:37;;;;;;;;;6.00;4.33;;;;;30.19;37.10;101800.38;6275329;22;45219;-93
2021/06/11 11:03:05;;;;;;;;;2.67;2.67;;;;;30.30;35.75;101796.56;6277487;22;45447;-92
2021/06/11 11:06:13;;;;;;;;;2.33;2.33;;;;;30.44;36.14;101802.34;6276921;22;45581;-93
2021/06/11 11:08:56;;;;;;;;;3.00;2.33;;;;;30.55;35.88;101785.94;6149469;22;48046;-91
2021/06/11 11:11:26;;;;;;;;;4.00;2.33;;;;;30.61;35.86;101790.63;6124967;23;45353;-93
2021/06/11 11:13:51;;;;;;;;;4.00;2.00;;;;;30.61;35.88;101781.72;6124476;23;45326;-92
2021/06/11 11:16:22;;;;;;;;;3.00;3.00;;;;;30.69;36.25;101780.91;6149598;23;45452;-91
2021/06/11 11:18:47;;;;;;;;;4.00;4.00;;;;;30.80;35.31;101780.63;6123296;23;47003;-93
2021/06/11 11:21:25;;;;;;;;;4.00;2.00;;;;;30.89;35.66;101793.09;6124061;23;45445;-91
2021/06/11 11:24:00;;;;;;;;;5.00;3.00;;;;;30.99;34.36;101787.56;6149443;23;45470;-92
2021/06/11 11:26:39;;;;;;;;;2.67;2.00;;;;;31.12;35.30;101778.16;6122500;23;45206;-92
2021/06/11 11:29:05;;;;;;;;;2.00;2.00;;;;;31.23;35.17;101785.06;6123097;23;47939;-93
2021/06/11 11:31:36;;;;;;;;;2.00;2.00;;;;;31.25;34.19;101780.34;6124970;22;45438;-93